Decoded Metar for ETHF (FRITZLAR in GERMANY) (IATA:N/A) | Meteo·Mobile Aviation Weather
aviador You're here:

ETHF Decoded Metar

FRITZLAR in GERMANY
Report Time2019-06-27 07:20:00
UTC Time2019-06-27 08:01:38
Flight Rules vfr VFR
Wind360° at 07 kt
W.Decomp.*RWY 30: 3.6 kt HW 6.0 kt RCW
Visibility9999 m
Phenomena:N/A
Clouds:Few 025 Hf
Expected CloudBase > 3,200 ft AGL from Temp-Dew spread
CeilingNone
Temp18°C (ISA +4)
Dew Point10°C (60% RH)
AAT15.6°C
QNH1027 hPa
Density Alt784 ft
Elevation594 ft
Report Wrong Elevation
Raw Report
METAR ETHF 270720Z 36007KT 9999 FEW025 18/10 Q1027 BLU+BLU+=

Extra information for ETHF:More info

Metar Taf Metar & Taf Last 4 Metars F.Rules Stats Wind Profile Meteogram Temp Stats Airport Information Weather charts Add Link Nearby VenuesMetar ALERT Operation Metar Decoded Social comments